sensor_id;sensor_type;location;lat;lon;timestamp;temperature;humidity
13346;DHT22;6742;48.036;15.780;2022-11-04T00:00:13;13.20;99.90
13346;DHT22;6742;48.036;15.780;2022-11-04T00:02:40;13.20;99.90
13346;DHT22;6742;48.036;15.780;2022-11-04T00:05:07;13.30;99.90
13346;DHT22;6742;48.036;15.780;2022-11-04T00:07:35;13.30;99.90
13346;DHT22;6742;48.036;15.780;2022-11-04T00:10:22;13.40;99.90
13346;DHT22;6742;48.036;15.780;2022-11-04T00:13:10;13.40;99.90
13346;DHT22;6742;48.036;15.780;2022-11-04T00:15:36;13.30;99.90
13346;DHT22;6742;48.036;15.780;2022-11-04T00:18:20;13.20;99.90
13346;DHT22;6742;48.036;15.780;2022-11-04T00:20:47;13.10;99.90
13346;DHT22;6742;48.036;15.780;2022-11-04T00:28:49;12.90;99.90
13346;DHT22;6742;48.036;15.780;2022-11-04T00:36:23;12.90;99.90
13346;DHT22;6742;48.036;15.780;2022-11-04T00:38:53;12.80;99.90
13346;DHT22;6742;48.036;15.780;2022-11-04T00:41:20;12.80;99.90
13346;DHT22;6742;48.036;15.780;2022-11-04T00:43:57;12.80;99.90
13346;DHT22;6742;48.036;15.780;2022-11-04T00:46:25;12.80;99.90
13346;DHT22;6742;48.036;15.780;2022-11-04T00:48:52;12.70;99.90
13346;DHT22;6742;48.036;15.780;2022-11-04T00:51:19;12.70;99.90
13346;DHT22;6742;48.036;15.780;2022-11-04T00:53:46;12.70;99.90
13346;DHT22;6742;48.036;15.780;2022-11-04T00:56:13;12.70;99.90
13346;DHT22;6742;48.036;15.780;2022-11-04T00:58:41;12.70;99.90
13346;DHT22;6742;48.036;15.780;2022-11-04T01:01:11;12.70;99.90
13346;DHT22;6742;48.036;15.780;2022-11-04T01:03:38;12.70;99.90
13346;DHT22;6742;48.036;15.780;2022-11-04T01:06:08;12.70;99.90
13346;DHT22;6742;48.036;15.780;2022-11-04T01:08:35;12.70;99.90
13346;DHT22;6742;48.036;15.780;2022-11-04T01:13:38;12.70;99.90
13346;DHT22;6742;48.036;15.780;2022-11-04T01:16:08;12.70;99.90
13346;DHT22;6742;48.036;15.780;2022-11-04T01:18:37;12.60;99.90
13346;DHT22;6742;48.036;15.780;2022-11-04T01:21:05;12.60;99.90
13346;DHT22;6742;48.036;15.780;2022-11-04T01:23:34;12.50;99.90
13346;DHT22;6742;48.036;15.780;2022-11-04T01:26:03;12.50;99.90
13346;DHT22;6742;48.036;15.780;2022-11-04T01:28:32;12.50;99.90
13346;DHT22;6742;48.036;15.780;2022-11-04T01:31:04;12.50;99.90
13346;DHT22;6742;48.036;15.780;2022-11-04T01:33:31;12.50;99.90
13346;DHT22;6742;48.036;15.780;2022-11-04T01:36:00;12.40;99.90
13346;DHT22;6742;48.036;15.780;2022-11-04T01:38:28;12.40;99.90
13346;DHT22;6742;48.036;15.780;2022-11-04T01:40:55;12.40;99.90
13346;DHT22;6742;48.036;15.780;2022-11-04T01:45:55;12.40;99.90
13346;DHT22;6742;48.036;15.780;2022-11-04T01:48:27;12.40;99.90
13346;DHT22;6742;48.036;15.780;2022-11-04T01:50:55;12.40;99.90
13346;DHT22;6742;48.036;15.780;2022-11-04T01:53:27;12.40;99.90
13346;DHT22;6742;48.036;15.780;2022-11-04T01:58:33;12.40;99.90
13346;DHT22;6742;48.036;15.780;2022-11-04T02:01:01;12.50;99.90
13346;DHT22;6742;48.036;15.780;2022-11-04T02:06:03;12.60;99.90
13346;DHT22;6742;48.036;15.780;2022-11-04T02:11:08;12.70;99.90
13346;DHT22;6742;48.036;15.780;2022-11-04T02:13:36;12.60;99.90
13346;DHT22;6742;48.036;15.780;2022-11-04T02:16:10;12.40;99.90
13346;DHT22;6742;48.036;15.780;2022-11-04T02:18:48;12.40;99.90
13346;DHT22;6742;48.036;15.780;2022-11-04T02:27:35;12.10;99.90
13346;DHT22;6742;48.036;15.780;2022-11-04T02:30:10;12.00;99.90
13346;DHT22;6742;48.036;15.780;2022-11-04T02:35:27;11.90;99.90
13346;DHT22;6742;48.036;15.780;2022-11-04T02:38:01;11.80;99.90
13346;DHT22;6742;48.036;15.780;2022-11-04T02:40:38;11.80;99.90
13346;DHT22;6742;48.036;15.780;2022-11-04T02:43:12;11.80;99.90
13346;DHT22;6742;48.036;15.780;2022-11-04T02:45:44;11.80;99.90
13346;DHT22;6742;48.036;15.780;2022-11-04T02:48:18;11.90;99.90
13346;DHT22;6742;48.036;15.780;2022-11-04T02:50:50;11.90;99.90
13346;DHT22;6742;48.036;15.780;2022-11-04T02:53:21;11.90;99.90
13346;DHT22;6742;48.036;15.780;2022-11-04T02:55:53;11.90;99.90
13346;DHT22;6742;48.036;15.780;2022-11-04T02:58:26;11.90;99.90
13346;DHT22;6742;48.036;15.780;2022-11-04T03:00:57;11.90;99.90
13346;DHT22;6742;48.036;15.780;2022-11-04T03:03:29;11.90;99.90
13346;DHT22;6742;48.036;15.780;2022-11-04T03:06:00;11.90;99.90
13346;DHT22;6742;48.036;15.780;2022-11-04T03:08:32;11.90;99.90
13346;DHT22;6742;48.036;15.780;2022-11-04T03:11:03;12.00;99.90
13346;DHT22;6742;48.036;15.780;2022-11-04T03:13:38;12.10;99.90
13346;DHT22;6742;48.036;15.780;2022-11-04T03:16:11;12.30;99.90
13346;DHT22;6742;48.036;15.780;2022-11-04T03:18:46;12.40;99.90
13346;DHT22;6742;48.036;15.780;2022-11-04T03:21:18;12.40;99.90
13346;DHT22;6742;48.036;15.780;2022-11-04T03:23:46;12.50;99.90
13346;DHT22;6742;48.036;15.780;2022-11-04T03:26:18;12.70;99.90
13346;DHT22;6742;48.036;15.780;2022-11-04T03:28:54;12.70;99.90
13346;DHT22;6742;48.036;15.780;2022-11-04T03:31:34;12.70;99.90
13346;DHT22;6742;48.036;15.780;2022-11-04T03:34:05;12.70;99.90
13346;DHT22;6742;48.036;15.780;2022-11-04T03:36:32;12.70;99.90
13346;DHT22;6742;48.036;15.780;2022-11-04T03:38:59;12.80;99.90
13346;DHT22;6742;48.036;15.780;2022-11-04T03:41:31;12.80;99.90
13346;DHT22;6742;48.036;15.780;2022-11-04T03:46:36;13.00;99.90
13346;DHT22;6742;48.036;15.780;2022-11-04T03:51:43;13.30;99.90
13346;DHT22;6742;48.036;15.780;2022-11-04T03:54:10;13.20;99.90
13346;DHT22;6742;48.036;15.780;2022-11-04T03:59:24;13.20;99.90
13346;DHT22;6742;48.036;15.780;2022-11-04T04:04:37;13.30;99.90
13346;DHT22;6742;48.036;15.780;2022-11-04T04:07:11;13.30;99.90
13346;DHT22;6742;48.036;15.780;2022-11-04T04:09:41;13.20;99.90
13346;DHT22;6742;48.036;15.780;2022-11-04T04:12:14;13.10;99.90
13346;DHT22;6742;48.036;15.780;2022-11-04T04:14:47;13.00;99.90
13346;DHT22;6742;48.036;15.780;2022-11-04T04:17:22;12.80;99.90
13346;DHT22;6742;48.036;15.780;2022-11-04T04:20:03;12.60;99.90
13346;DHT22;6742;48.036;15.780;2022-11-04T04:22:35;12.50;99.90
13346;DHT22;6742;48.036;15.780;2022-11-04T04:25:06;12.30;99.90
13346;DHT22;6742;48.036;15.780;2022-11-04T04:27:56;12.30;99.90
13346;DHT22;6742;48.036;15.780;2022-11-04T04:30:23;12.30;99.90
13346;DHT22;6742;48.036;15.780;2022-11-04T04:32:57;12.30;99.90
13346;DHT22;6742;48.036;15.780;2022-11-04T04:35:27;12.40;99.90
13346;DHT22;6742;48.036;15.780;2022-11-04T04:38:16;12.40;99.90
13346;DHT22;6742;48.036;15.780;2022-11-04T04:43:38;12.50;99.90
13346;DHT22;6742;48.036;15.780;2022-11-04T04:46:26;12.60;99.90
13346;DHT22;6742;48.036;15.780;2022-11-04T04:48:54;12.60;99.90
13346;DHT22;6742;48.036;15.780;2022-11-04T04:51:21;12.70;99.90
13346;DHT22;6742;48.036;15.780;2022-11-04T04:53:49;12.70;99.90
13346;DHT22;6742;48.036;15.780;2022-11-04T04:56:16;12.80;99.90
13346;DHT22;6742;48.036;15.780;2022-11-04T04:58:43;12.80;99.90
13346;DHT22;6742;48.036;15.780;2022-11-04T05:01:10;12.80;99.90
13346;DHT22;6742;48.036;15.780;2022-11-04T05:03:37;12.80;99.90
13346;DHT22;6742;48.036;15.780;2022-11-04T05:06:06;12.90;99.90
13346;DHT22;6742;48.036;15.780;2022-11-04T05:08:33;12.90;99.90
13346;DHT22;6742;48.036;15.780;2022-11-04T05:11:00;12.90;99.90
13346;DHT22;6742;48.036;15.780;2022-11-04T05:13:27;12.90;99.90
13346;DHT22;6742;48.036;15.780;2022-11-04T05:15:55;12.90;99.90
13346;DHT22;6742;48.036;15.780;2022-11-04T05:18:23;12.90;99.90
13346;DHT22;6742;48.036;15.780;2022-11-04T05:23:21;12.70;99.90
13346;DHT22;6742;48.036;15.780;2022-11-04T05:25:48;12.70;99.90
13346;DHT22;6742;48.036;15.780;2022-11-04T05:28:16;12.80;99.90
13346;DHT22;6742;48.036;15.780;2022-11-04T05:30:43;12.80;99.90
13346;DHT22;6742;48.036;15.780;2022-11-04T05:33:10;12.80;99.90
13346;DHT22;6742;48.036;15.780;2022-11-04T05:35:37;12.80;99.90
13346;DHT22;6742;48.036;15.780;2022-11-04T05:38:04;12.80;99.90
13346;DHT22;6742;48.036;15.780;2022-11-04T05:40:32;12.80;99.90
13346;DHT22;6742;48.036;15.780;2022-11-04T05:42:59;12.90;99.90
13346;DHT22;6742;48.036;15.780;2022-11-04T05:45:27;12.90;99.90
13346;DHT22;6742;48.036;15.780;2022-11-04T05:47:58;12.90;99.90
13346;DHT22;6742;48.036;15.780;2022-11-04T05:50:25;12.80;99.90
13346;DHT22;6742;48.036;15.780;2022-11-04T05:52:52;12.80;99.90
13346;DHT22;6742;48.036;15.780;2022-11-04T05:55:21;12.80;99.90
13346;DHT22;6742;48.036;15.780;2022-11-04T05:57:50;12.70;99.90
13346;DHT22;6742;48.036;15.780;2022-11-04T06:00:18;12.80;99.90
13346;DHT22;6742;48.036;15.780;2022-11-04T06:02:45;12.80;99.90
13346;DHT22;6742;48.036;15.780;2022-11-04T06:05:12;12.80;99.90
13346;DHT22;6742;48.036;15.780;2022-11-04T06:07:39;12.80;99.90
13346;DHT22;6742;48.036;15.780;2022-11-04T06:10:07;12.90;99.90
13346;DHT22;6742;48.036;15.780;2022-11-04T06:12:34;12.90;99.90
13346;DHT22;6742;48.036;15.780;2022-11-04T06:15:03;12.90;99.90
13346;DHT22;6742;48.036;15.780;2022-11-04T06:17:30;12.90;99.90
13346;DHT22;6742;48.036;15.780;2022-11-04T06:19:57;12.90;99.90
13346;DHT22;6742;48.036;15.780;2022-11-04T06:22:31;13.00;99.90
13346;DHT22;6742;48.036;15.780;2022-11-04T06:24:58;13.10;99.90
13346;DHT22;6742;48.036;15.780;2022-11-04T06:27:25;13.10;99.90
13346;DHT22;6742;48.036;15.780;2022-11-04T06:29:52;13.20;99.90
13346;DHT22;6742;48.036;15.780;2022-11-04T06:32:20;13.10;99.90
13346;DHT22;6742;48.036;15.780;2022-11-04T06:34:47;13.20;99.90
13346;DHT22;6742;48.036;15.780;2022-11-04T06:37:20;13.00;99.90
13346;DHT22;6742;48.036;15.780;2022-11-04T06:39:47;13.10;99.90
13346;DHT22;6742;48.036;15.780;2022-11-04T06:42:14;13.10;99.90
13346;DHT22;6742;48.036;15.780;2022-11-04T06:44:41;13.10;99.90
13346;DHT22;6742;48.036;15.780;2022-11-04T06:47:09;13.20;99.90
13346;DHT22;6742;48.036;15.780;2022-11-04T06:49:37;13.30;99.90
13346;DHT22;6742;48.036;15.780;2022-11-04T06:52:04;13.20;99.90
13346;DHT22;6742;48.036;15.780;2022-11-04T06:54:31;13.20;99.90
13346;DHT22;6742;48.036;15.780;2022-11-04T06:57:01;13.20;99.90
13346;DHT22;6742;48.036;15.780;2022-11-04T06:59:28;13.20;99.90
13346;DHT22;6742;48.036;15.780;2022-11-04T07:01:55;13.30;99.90
13346;DHT22;6742;48.036;15.780;2022-11-04T07:04:22;13.30;99.90
13346;DHT22;6742;48.036;15.780;2022-11-04T07:06:51;13.30;99.90
13346;DHT22;6742;48.036;15.780;2022-11-04T07:09:18;13.30;99.90
13346;DHT22;6742;48.036;15.780;2022-11-04T07:11:45;13.30;99.90
13346;DHT22;6742;48.036;15.780;2022-11-04T07:14:12;13.30;99.90
13346;DHT22;6742;48.036;15.780;2022-11-04T07:16:39;13.30;99.90
13346;DHT22;6742;48.036;15.780;2022-11-04T07:19:06;13.20;99.90
13346;DHT22;6742;48.036;15.780;2022-11-04T07:21:33;13.20;99.90
13346;DHT22;6742;48.036;15.780;2022-11-04T07:24:02;13.20;99.90
13346;DHT22;6742;48.036;15.780;2022-11-04T07:26:29;13.20;99.90
13346;DHT22;6742;48.036;15.780;2022-11-04T07:28:56;13.00;99.90
13346;DHT22;6742;48.036;15.780;2022-11-04T07:31:25;13.00;99.90
13346;DHT22;6742;48.036;15.780;2022-11-04T07:33:53;13.00;99.90
13346;DHT22;6742;48.036;15.780;2022-11-04T07:36:20;13.00;99.90
13346;DHT22;6742;48.036;15.780;2022-11-04T07:38:47;13.10;99.90
13346;DHT22;6742;48.036;15.780;2022-11-04T07:41:16;13.20;99.90
13346;DHT22;6742;48.036;15.780;2022-11-04T07:43:47;13.20;99.90
13346;DHT22;6742;48.036;15.780;2022-11-04T07:46:15;13.20;99.90
13346;DHT22;6742;48.036;15.780;2022-11-04T07:48:42;13.30;99.90
13346;DHT22;6742;48.036;15.780;2022-11-04T07:51:11;13.30;99.90
13346;DHT22;6742;48.036;15.780;2022-11-04T07:53:39;13.30;99.90
13346;DHT22;6742;48.036;15.780;2022-11-04T07:56:08;13.30;99.90
13346;DHT22;6742;48.036;15.780;2022-11-04T07:58:38;13.30;99.90
13346;DHT22;6742;48.036;15.780;2022-11-04T08:01:07;13.30;99.90
13346;DHT22;6742;48.036;15.780;2022-11-04T08:03:35;13.40;99.90
13346;DHT22;6742;48.036;15.780;2022-11-04T08:06:04;13.40;99.90
13346;DHT22;6742;48.036;15.780;2022-11-04T08:08:32;13.30;99.90
13346;DHT22;6742;48.036;15.780;2022-11-04T08:11:01;13.20;99.90
13346;DHT22;6742;48.036;15.780;2022-11-04T08:13:30;13.20;99.90
13346;DHT22;6742;48.036;15.780;2022-11-04T08:16:02;13.10;99.90
13346;DHT22;6742;48.036;15.780;2022-11-04T08:18:30;12.90;99.90
13346;DHT22;6742;48.036;15.780;2022-11-04T08:20:57;12.90;99.90
13346;DHT22;6742;48.036;15.780;2022-11-04T08:23:25;12.90;99.90
13346;DHT22;6742;48.036;15.780;2022-11-04T08:25:55;12.90;99.90
13346;DHT22;6742;48.036;15.780;2022-11-04T08:28:22;13.00;99.90
13346;DHT22;6742;48.036;15.780;2022-11-04T08:30:54;13.10;99.90
13346;DHT22;6742;48.036;15.780;2022-11-04T08:33:30;13.10;99.90
13346;DHT22;6742;48.036;15.780;2022-11-04T08:36:03;13.10;99.90
13346;DHT22;6742;48.036;15.780;2022-11-04T08:38:30;13.10;99.90
13346;DHT22;6742;48.036;15.780;2022-11-04T08:40:59;13.10;99.90
13346;DHT22;6742;48.036;15.780;2022-11-04T08:43:27;13.00;99.90
13346;DHT22;6742;48.036;15.780;2022-11-04T08:45:55;13.00;99.90
13346;DHT22;6742;48.036;15.780;2022-11-04T08:48:23;13.00;99.90
13346;DHT22;6742;48.036;15.780;2022-11-04T08:50:51;13.10;99.90
13346;DHT22;6742;48.036;15.780;2022-11-04T08:53:19;13.10;99.90
13346;DHT22;6742;48.036;15.780;2022-11-04T08:55:47;13.10;99.90
13346;DHT22;6742;48.036;15.780;2022-11-04T08:58:14;13.20;99.90
13346;DHT22;6742;48.036;15.780;2022-11-04T09:00:42;13.20;99.90
13346;DHT22;6742;48.036;15.780;2022-11-04T09:03:09;13.20;99.90
13346;DHT22;6742;48.036;15.780;2022-11-04T09:05:38;13.20;99.90
13346;DHT22;6742;48.036;15.780;2022-11-04T09:08:09;13.10;99.90
13346;DHT22;6742;48.036;15.780;2022-11-04T09:10:40;13.00;99.90
13346;DHT22;6742;48.036;15.780;2022-11-04T09:13:07;13.10;99.90
13346;DHT22;6742;48.036;15.780;2022-11-04T09:15:35;13.10;99.90
13346;DHT22;6742;48.036;15.780;2022-11-04T09:18:02;13.00;99.90
13346;DHT22;6742;48.036;15.780;2022-11-04T09:20:29;13.00;99.90
13346;DHT22;6742;48.036;15.780;2022-11-04T09:22:57;13.10;99.90
13346;DHT22;6742;48.036;15.780;2022-11-04T09:25:24;13.00;99.90
13346;DHT22;6742;48.036;15.780;2022-11-04T09:27:52;13.00;99.90
13346;DHT22;6742;48.036;15.780;2022-11-04T09:30:19;12.90;99.90
13346;DHT22;6742;48.036;15.780;2022-11-04T09:32:46;12.80;99.90
13346;DHT22;6742;48.036;15.780;2022-11-04T09:35:13;12.80;99.90
13346;DHT22;6742;48.036;15.780;2022-11-04T09:37:42;12.80;99.90
13346;DHT22;6742;48.036;15.780;2022-11-04T09:40:17;12.70;99.90
13346;DHT22;6742;48.036;15.780;2022-11-04T09:42:54;12.60;99.90
13346;DHT22;6742;48.036;15.780;2022-11-04T09:45:27;12.50;99.90
13346;DHT22;6742;48.036;15.780;2022-11-04T09:47:59;12.50;99.90
13346;DHT22;6742;48.036;15.780;2022-11-04T09:50:29;12.60;99.90
13346;DHT22;6742;48.036;15.780;2022-11-04T09:53:03;12.60;99.90
13346;DHT22;6742;48.036;15.780;2022-11-04T09:55:38;12.60;99.90
13346;DHT22;6742;48.036;15.780;2022-11-04T09:58:11;12.70;99.90
13346;DHT22;6742;48.036;15.780;2022-11-04T10:00:41;12.60;99.90
13346;DHT22;6742;48.036;15.780;2022-11-04T10:03:23;12.60;99.90
13346;DHT22;6742;48.036;15.780;2022-11-04T10:06:07;12.50;99.90
13346;DHT22;6742;48.036;15.780;2022-11-04T10:08:55;12.50;99.90
13346;DHT22;6742;48.036;15.780;2022-11-04T10:11:31;12.30;99.90
13346;DHT22;6742;48.036;15.780;2022-11-04T10:14:14;12.30;99.90
13346;DHT22;6742;48.036;15.780;2022-11-04T10:16:57;12.40;99.90
13346;DHT22;6742;48.036;15.780;2022-11-04T10:19:43;12.40;99.90
13346;DHT22;6742;48.036;15.780;2022-11-04T10:22:16;12.40;99.90
13346;DHT22;6742;48.036;15.780;2022-11-04T10:24:53;12.40;99.90
13346;DHT22;6742;48.036;15.780;2022-11-04T10:27:27;12.40;99.90
13346;DHT22;6742;48.036;15.780;2022-11-04T10:29:57;12.40;99.90
13346;DHT22;6742;48.036;15.780;2022-11-04T10:32:28;12.40;99.90
13346;DHT22;6742;48.036;15.780;2022-11-04T10:34:59;12.40;99.90
13346;DHT22;6742;48.036;15.780;2022-11-04T10:37:28;12.40;99.90
13346;DHT22;6742;48.036;15.780;2022-11-04T10:40:01;12.50;99.90
13346;DHT22;6742;48.036;15.780;2022-11-04T10:42:32;12.40;99.90
13346;DHT22;6742;48.036;15.780;2022-11-04T10:47:40;12.40;99.90
13346;DHT22;6742;48.036;15.780;2022-11-04T10:50:23;12.30;99.90
13346;DHT22;6742;48.036;15.780;2022-11-04T10:52:54;12.40;99.90
13346;DHT22;6742;48.036;15.780;2022-11-04T10:55:32;12.30;99.90
13346;DHT22;6742;48.036;15.780;2022-11-04T10:58:03;12.30;99.90
13346;DHT22;6742;48.036;15.780;2022-11-04T11:00:39;12.30;99.90
13346;DHT22;6742;48.036;15.780;2022-11-04T11:03:28;12.40;99.90
13346;DHT22;6742;48.036;15.780;2022-11-04T11:06:13;12.40;99.90
13346;DHT22;6742;48.036;15.780;2022-11-04T11:08:42;12.30;99.90
13346;DHT22;6742;48.036;15.780;2022-11-04T11:11:10;12.20;99.90
13346;DHT22;6742;48.036;15.780;2022-11-04T11:13:40;12.20;99.90
13346;DHT22;6742;48.036;15.780;2022-11-04T11:16:10;12.20;99.90
13346;DHT22;6742;48.036;15.780;2022-11-04T11:18:40;12.20;99.90
13346;DHT22;6742;48.036;15.780;2022-11-04T11:21:11;12.30;99.90
13346;DHT22;6742;48.036;15.780;2022-11-04T11:23:41;12.30;99.90
13346;DHT22;6742;48.036;15.780;2022-11-04T11:26:10;12.40;99.90
13346;DHT22;6742;48.036;15.780;2022-11-04T11:28:40;12.40;99.90
13346;DHT22;6742;48.036;15.780;2022-11-04T11:31:10;12.40;99.90
13346;DHT22;6742;48.036;15.780;2022-11-04T11:33:50;12.40;99.90
13346;DHT22;6742;48.036;15.780;2022-11-04T11:36:21;12.50;99.90
13346;DHT22;6742;48.036;15.780;2022-11-04T11:39:01;12.60;99.90
13346;DHT22;6742;48.036;15.780;2022-11-04T11:41:31;12.60;99.90
13346;DHT22;6742;48.036;15.780;2022-11-04T11:44:06;12.70;99.90
13346;DHT22;6742;48.036;15.780;2022-11-04T11:46:50;12.70;99.90
13346;DHT22;6742;48.036;15.780;2022-11-04T11:49:23;12.50;99.90
13346;DHT22;6742;48.036;15.780;2022-11-04T11:51:53;12.40;99.90
13346;DHT22;6742;48.036;15.780;2022-11-04T11:54:28;12.40;99.90
13346;DHT22;6742;48.036;15.780;2022-11-04T11:57:00;12.30;99.90
13346;DHT22;6742;48.036;15.780;2022-11-04T11:59:37;12.30;99.90
13346;DHT22;6742;48.036;15.780;2022-11-04T12:02:20;12.40;99.90
13346;DHT22;6742;48.036;15.780;2022-11-04T12:04:51;12.40;99.90
13346;DHT22;6742;48.036;15.780;2022-11-04T12:07:27;12.40;99.90
13346;DHT22;6742;48.036;15.780;2022-11-04T12:10:04;12.40;99.90
13346;DHT22;6742;48.036;15.780;2022-11-04T12:12:44;12.40;99.90
13346;DHT22;6742;48.036;15.780;2022-11-04T12:15:28;12.40;99.90
13346;DHT22;6742;48.036;15.780;2022-11-04T12:18:12;12.40;99.90
13346;DHT22;6742;48.036;15.780;2022-11-04T12:20:51;12.40;99.90
13346;DHT22;6742;48.036;15.780;2022-11-04T12:23:27;12.40;99.90
13346;DHT22;6742;48.036;15.780;2022-11-04T12:26:05;12.40;99.90
13346;DHT22;6742;48.036;15.780;2022-11-04T12:28:45;12.30;99.90
13346;DHT22;6742;48.036;15.780;2022-11-04T12:31:22;12.20;99.90
13346;DHT22;6742;48.036;15.780;2022-11-04T12:33:58;12.20;99.90
13346;DHT22;6742;48.036;15.780;2022-11-04T12:36:38;12.10;99.90
13346;DHT22;6742;48.036;15.780;2022-11-04T12:39:17;12.00;99.90
13346;DHT22;6742;48.036;15.780;2022-11-04T12:41:52;12.10;99.90
13346;DHT22;6742;48.036;15.780;2022-11-04T12:44:28;12.20;99.90
13346;DHT22;6742;48.036;15.780;2022-11-04T12:47:08;12.20;99.90
13346;DHT22;6742;48.036;15.780;2022-11-04T12:49:45;12.10;99.90
13346;DHT22;6742;48.036;15.780;2022-11-04T12:52:26;12.20;99.90
13346;DHT22;6742;48.036;15.780;2022-11-04T12:55:05;12.20;99.90
13346;DHT22;6742;48.036;15.780;2022-11-04T12:57:43;12.30;99.90
13346;DHT22;6742;48.036;15.780;2022-11-04T13:00:13;12.40;99.90
13346;DHT22;6742;48.036;15.780;2022-11-04T13:02:47;12.30;99.90
13346;DHT22;6742;48.036;15.780;2022-11-04T13:05:27;12.30;99.90
13346;DHT22;6742;48.036;15.780;2022-11-04T13:08:02;12.30;99.90
13346;DHT22;6742;48.036;15.780;2022-11-04T13:10:38;12.20;99.90
13346;DHT22;6742;48.036;15.780;2022-11-04T13:13:09;12.10;99.90
13346;DHT22;6742;48.036;15.780;2022-11-04T13:15:44;12.00;99.90
13346;DHT22;6742;48.036;15.780;2022-11-04T13:18:16;12.00;99.90
13346;DHT22;6742;48.036;15.780;2022-11-04T13:20:49;12.00;99.90
13346;DHT22;6742;48.036;15.780;2022-11-04T13:23:21;11.90;99.90
13346;DHT22;6742;48.036;15.780;2022-11-04T13:25:52;11.80;99.90
13346;DHT22;6742;48.036;15.780;2022-11-04T13:28:21;11.80;99.90
13346;DHT22;6742;48.036;15.780;2022-11-04T13:30:54;11.80;99.90
13346;DHT22;6742;48.036;15.780;2022-11-04T13:33:34;11.60;99.90
13346;DHT22;6742;48.036;15.780;2022-11-04T13:36:11;11.60;99.90
13346;DHT22;6742;48.036;15.780;2022-11-04T13:38:44;11.60;99.90
13346;DHT22;6742;48.036;15.780;2022-11-04T13:41:38;11.50;99.90
13346;DHT22;6742;48.036;15.780;2022-11-04T13:44:13;11.50;99.90
13346;DHT22;6742;48.036;15.780;2022-11-04T13:46:47;11.30;99.90
13346;DHT22;6742;48.036;15.780;2022-11-04T13:49:20;11.30;99.90
13346;DHT22;6742;48.036;15.780;2022-11-04T13:52:03;11.30;99.90
13346;DHT22;6742;48.036;15.780;2022-11-04T13:54:35;11.40;99.90
13346;DHT22;6742;48.036;15.780;2022-11-04T13:57:15;11.40;99.90
13346;DHT22;6742;48.036;15.780;2022-11-04T14:00:20;11.40;99.90
13346;DHT22;6742;48.036;15.780;2022-11-04T14:02:49;11.20;99.90
13346;DHT22;6742;48.036;15.780;2022-11-04T14:08:23;10.90;99.90
13346;DHT22;6742;48.036;15.780;2022-11-04T14:11:14;10.80;99.90
13346;DHT22;6742;48.036;15.780;2022-11-04T14:13:45;10.80;99.90
13346;DHT22;6742;48.036;15.780;2022-11-04T14:16:41;10.60;99.90
13346;DHT22;6742;48.036;15.780;2022-11-04T14:22:36;10.50;99.90
13346;DHT22;6742;48.036;15.780;2022-11-04T14:25:24;10.40;99.90
13346;DHT22;6742;48.036;15.780;2022-11-04T14:27:53;10.40;99.90
13346;DHT22;6742;48.036;15.780;2022-11-04T14:30:30;10.30;99.90
13346;DHT22;6742;48.036;15.780;2022-11-04T14:33:00;10.00;99.90
13346;DHT22;6742;48.036;15.780;2022-11-04T14:35:29;9.90;99.90
13346;DHT22;6742;48.036;15.780;2022-11-04T14:38:06;9.90;99.90
13346;DHT22;6742;48.036;15.780;2022-11-04T14:40:48;9.80;99.90
13346;DHT22;6742;48.036;15.780;2022-11-04T14:43:29;9.80;99.90
13346;DHT22;6742;48.036;15.780;2022-11-04T14:45:59;9.90;99.90
13346;DHT22;6742;48.036;15.780;2022-11-04T14:48:27;10.00;99.90
13346;DHT22;6742;48.036;15.780;2022-11-04T14:50:56;10.10;99.90
13346;DHT22;6742;48.036;15.780;2022-11-04T14:53:27;10.20;99.90
13346;DHT22;6742;48.036;15.780;2022-11-04T14:56:14;10.30;99.90
13346;DHT22;6742;48.036;15.780;2022-11-04T14:58:54;10.30;99.90
13346;DHT22;6742;48.036;15.780;2022-11-04T15:01:23;10.30;99.90
13346;DHT22;6742;48.036;15.780;2022-11-04T15:03:51;10.30;99.90
13346;DHT22;6742;48.036;15.780;2022-11-04T15:06:23;10.30;99.90
13346;DHT22;6742;48.036;15.780;2022-11-04T15:08:51;10.20;99.90
13346;DHT22;6742;48.036;15.780;2022-11-04T15:11:22;10.20;99.90
13346;DHT22;6742;48.036;15.780;2022-11-04T15:14:12;10.20;99.90
13346;DHT22;6742;48.036;15.780;2022-11-04T15:16:40;10.20;99.90
13346;DHT22;6742;48.036;15.780;2022-11-04T15:19:08;10.20;99.90
13346;DHT22;6742;48.036;15.780;2022-11-04T15:21:39;10.20;99.90
13346;DHT22;6742;48.036;15.780;2022-11-04T15:24:13;10.20;99.90
13346;DHT22;6742;48.036;15.780;2022-11-04T15:26:48;10.10;99.90
13346;DHT22;6742;48.036;15.780;2022-11-04T15:29:17;10.10;99.90
13346;DHT22;6742;48.036;15.780;2022-11-04T15:31:55;10.10;99.90
13346;DHT22;6742;48.036;15.780;2022-11-04T15:34:22;10.10;99.90
13346;DHT22;6742;48.036;15.780;2022-11-04T15:36:52;10.00;99.90
13346;DHT22;6742;48.036;15.780;2022-11-04T15:39:22;10.10;99.90
13346;DHT22;6742;48.036;15.780;2022-11-04T15:41:54;10.10;99.90
13346;DHT22;6742;48.036;15.780;2022-11-04T15:44:45;10.10;99.90
13346;DHT22;6742;48.036;15.780;2022-11-04T15:47:23;10.10;99.90
13346;DHT22;6742;48.036;15.780;2022-11-04T15:49:53;10.10;99.90
13346;DHT22;6742;48.036;15.780;2022-11-04T15:52:22;10.10;99.90
13346;DHT22;6742;48.036;15.780;2022-11-04T15:54:50;10.00;99.90
13346;DHT22;6742;48.036;15.780;2022-11-04T15:57:21;9.90;99.90
13346;DHT22;6742;48.036;15.780;2022-11-04T15:59:51;9.90;99.90
13346;DHT22;6742;48.036;15.780;2022-11-04T16:02:25;9.90;99.90
13346;DHT22;6742;48.036;15.780;2022-11-04T16:05:04;9.70;99.90
13346;DHT22;6742;48.036;15.780;2022-11-04T16:07:35;9.70;99.90
13346;DHT22;6742;48.036;15.780;2022-11-04T16:12:46;9.70;99.90
13346;DHT22;6742;48.036;15.780;2022-11-04T16:15:29;9.70;99.90
13346;DHT22;6742;48.036;15.780;2022-11-04T16:18:00;9.80;99.90
13346;DHT22;6742;48.036;15.780;2022-11-04T16:20:27;9.80;99.90
13346;DHT22;6742;48.036;15.780;2022-11-04T16:22:57;9.70;99.90
13346;DHT22;6742;48.036;15.780;2022-11-04T16:25:32;9.80;99.90
13346;DHT22;6742;48.036;15.780;2022-11-04T16:28:04;9.80;99.90
13346;DHT22;6742;48.036;15.780;2022-11-04T16:30:33;9.80;99.90
13346;DHT22;6742;48.036;15.780;2022-11-04T16:33:08;9.80;99.90
13346;DHT22;6742;48.036;15.780;2022-11-04T16:35:36;9.70;99.90
13346;DHT22;6742;48.036;15.780;2022-11-04T16:38:07;9.80;99.90
13346;DHT22;6742;48.036;15.780;2022-11-04T16:40:34;9.80;99.90
13346;DHT22;6742;48.036;15.780;2022-11-04T16:43:03;9.80;99.90
13346;DHT22;6742;48.036;15.780;2022-11-04T16:45:32;9.70;99.90
13346;DHT22;6742;48.036;15.780;2022-11-04T16:48:00;9.70;99.90
13346;DHT22;6742;48.036;15.780;2022-11-04T16:50:27;9.70;99.90
13346;DHT22;6742;48.036;15.780;2022-11-04T16:52:56;9.70;99.90
13346;DHT22;6742;48.036;15.780;2022-11-04T16:55:24;9.70;99.90
13346;DHT22;6742;48.036;15.780;2022-11-04T16:57:56;9.70;99.90
13346;DHT22;6742;48.036;15.780;2022-11-04T17:00:27;9.60;99.90